Zametcino, Russia
Current Conditions -  °F | °C
As of 1:30 PM on Saturday 22 Nov 2014 (Local Time) from UUOO Reporting Station
Overcast Overcast  
Wind Chill: 15°   Ceiling: 300
Heat Index: 21°   Visibility: 3mi
Dew Point: 19°   Wind: 4mph
Humidity: 93%   Direction: NA
Pressure: 30.42"   Gusts: NA
Location:  53.48°N, 42.63°E
Report Text: UUOO 221030Z VRB02MPS 5000 OVC003 M06/M07 Q1030 NOSIG RMK30190060
Loading
Personal Weather Stations






























Interactive Weather Map New forecast layout! Learn more

10-Day Weather Forecast

Advertisements
Track Severe Weather on mobile